createdAt,value
2022-07-31T00:01:09.980Z,3.20
2022-07-31T00:03:39.127Z,2.38
2022-07-31T00:06:08.618Z,2.85
2022-07-31T00:08:37.863Z,2.60
2022-07-31T00:11:06.906Z,2.85
2022-07-31T00:13:58.012Z,2.42
2022-07-31T00:16:26.705Z,3.33
2022-07-31T00:18:56.415Z,3.85
2022-07-31T00:21:25.813Z,2.33
2022-07-31T00:23:54.920Z,2.40
2022-07-31T00:26:24.106Z,2.67
2022-07-31T00:28:53.139Z,2.92
2022-07-31T00:31:22.747Z,1.75
2022-07-31T00:33:53.456Z,3.42
2022-07-31T00:36:29.980Z,4.60
2022-07-31T00:39:01.739Z,3.17
2022-07-31T00:41:40.476Z,2.85
2022-07-31T00:44:12.252Z,3.17
2022-07-31T00:46:42.839Z,4.57
2022-07-31T00:49:13.622Z,3.80
2022-07-31T00:51:42.858Z,4.55
2022-07-31T00:54:17.513Z,4.93
2022-07-31T00:56:52.693Z,4.47
2022-07-31T00:59:24.981Z,4.85
2022-07-31T01:01:54.750Z,4.20
2022-07-31T01:04:26.317Z,5.13
2022-07-31T01:06:57.814Z,3.33
2022-07-31T01:09:27.173Z,2.42
2022-07-31T01:12:03.756Z,3.90
2022-07-31T01:14:36.827Z,5.18
2022-07-31T01:17:09.734Z,2.83
2022-07-31T01:19:44.500Z,3.22
2022-07-31T01:22:52.684Z,5.90
2022-07-31T01:25:35.554Z,3.65
2022-07-31T01:28:25.428Z,4.43
2022-07-31T01:31:24.383Z,4.05
2022-07-31T01:33:56.706Z,2.53
2022-07-31T01:36:28.178Z,2.83
2022-07-31T01:38:59.067Z,3.47
2022-07-31T01:41:31.454Z,2.22
2022-07-31T01:44:01.807Z,4.85
2022-07-31T01:46:37.242Z,4.90
2022-07-31T01:49:13.709Z,7.35
2022-07-31T01:51:45.715Z,7.05
2022-07-31T01:54:18.384Z,6.40
2022-07-31T01:56:49.625Z,6.13
2022-07-31T02:02:17.124Z,7.30
2022-07-31T02:04:47.315Z,6.25
2022-07-31T02:07:19.259Z,8.73
2022-07-31T02:09:57.846Z,6.88
2022-07-31T02:12:33.957Z,10.27
2022-07-31T02:15:05.555Z,12.10
2022-07-31T02:17:38.018Z,13.18
2022-07-31T02:20:34.228Z,13.23
2022-07-31T02:23:03.447Z,11.10
2022-07-31T02:25:35.320Z,14.57
2022-07-31T02:28:10.190Z,12.88
2022-07-31T02:30:42.051Z,9.02
2022-07-31T02:33:17.730Z,13.15
2022-07-31T02:35:50.433Z,10.32
2022-07-31T02:38:23.956Z,8.23
2022-07-31T02:41:01.906Z,10.50
2022-07-31T02:43:34.925Z,8.73
2022-07-31T02:46:14.956Z,10.75
2022-07-31T02:48:46.336Z,6.80
2022-07-31T02:51:17.144Z,7.97
2022-07-31T02:53:46.564Z,10.70
2022-07-31T02:56:16.943Z,8.20
2022-07-31T02:58:46.066Z,10.27
2022-07-31T03:01:27.866Z,7.53
2022-07-31T03:03:59.998Z,5.90
2022-07-31T03:06:30.700Z,8.45
2022-07-31T03:09:00.907Z,7.28
2022-07-31T03:11:33.658Z,10.55
2022-07-31T03:14:04.482Z,6.50
2022-07-31T03:16:34.177Z,5.75
2022-07-31T03:19:08.504Z,7.63
2022-07-31T03:21:38.499Z,7.85
2022-07-31T03:24:08.519Z,5.88
2022-07-31T03:26:37.946Z,6.30
2022-07-31T03:29:42.286Z,5.00
2022-07-31T03:31:56.280Z,6.00
2022-07-31T03:34:26.739Z,6.07
2022-07-31T03:36:55.798Z,6.10
2022-07-31T03:39:25.084Z,6.53
2022-07-31T03:41:58.007Z,7.47
2022-07-31T03:44:28.101Z,4.40
2022-07-31T03:46:57.645Z,5.90
2022-07-31T03:49:29.190Z,7.55
2022-07-31T03:52:00.554Z,8.48
2022-07-31T03:54:30.107Z,5.93
2022-07-31T03:57:17.819Z,7.03
2022-07-31T03:59:50.136Z,7.50
2022-07-31T04:02:19.650Z,6.00
2022-07-31T04:04:54.161Z,7.53
2022-07-31T04:07:23.863Z,8.95
2022-07-31T04:09:53.266Z,5.55
2022-07-31T04:12:22.364Z,8.07
2022-07-31T04:14:51.498Z,3.85
2022-07-31T04:17:21.212Z,7.88
2022-07-31T04:19:50.695Z,5.70
2022-07-31T04:22:21.180Z,9.00
2022-07-31T04:24:50.960Z,5.63
2022-07-31T04:27:58.210Z,8.18
2022-07-31T04:30:28.116Z,5.93
2022-07-31T04:32:59.322Z,8.82
2022-07-31T04:35:30.504Z,4.10
2022-07-31T04:38:01.204Z,8.68
2022-07-31T04:40:33.808Z,7.28
2022-07-31T04:43:03.018Z,4.35
2022-07-31T04:45:32.470Z,10.23
2022-07-31T04:48:01.566Z,5.93
2022-07-31T04:50:31.545Z,5.50
2022-07-31T04:53:02.560Z,4.78
2022-07-31T04:55:36.758Z,5.47
2022-07-31T04:58:06.086Z,5.10
2022-07-31T05:00:35.331Z,7.22
2022-07-31T05:03:05.692Z,4.80
2022-07-31T05:05:34.988Z,4.30
2022-07-31T05:08:05.571Z,5.72
2022-07-31T05:11:00.358Z,6.15
2022-07-31T05:13:30.535Z,4.97
2022-07-31T05:15:59.688Z,4.13
2022-07-31T05:18:29.137Z,2.65
2022-07-31T05:21:17.743Z,3.47
2022-07-31T05:24:00.285Z,5.05
2022-07-31T05:26:50.725Z,4.03
2022-07-31T05:29:19.884Z,3.40
2022-07-31T05:31:59.670Z,3.97
2022-07-31T05:34:31.418Z,2.80
2022-07-31T05:37:02.227Z,2.35
2022-07-31T05:39:34.844Z,1.48
2022-07-31T05:42:22.470Z,2.05
2022-07-31T05:45:23.903Z,2.83
2022-07-31T05:47:53.401Z,3.20
2022-07-31T05:50:23.300Z,1.20
2022-07-31T05:52:52.409Z,2.92
2022-07-31T05:55:41.387Z,1.42
2022-07-31T05:58:30.751Z,2.60
2022-07-31T06:00:59.878Z,2.28
2022-07-31T06:03:29.094Z,2.75
2022-07-31T06:06:07.715Z,2.75
2022-07-31T06:08:36.945Z,5.18
2022-07-31T06:11:07.839Z,2.97
2022-07-31T06:13:37.003Z,2.47
2022-07-31T06:16:21.454Z,2.85
2022-07-31T06:18:52.581Z,1.60
2022-07-31T06:23:50.952Z,3.90
2022-07-31T06:26:29.841Z,2.50
2022-07-31T06:28:59.242Z,5.67
2022-07-31T06:31:28.291Z,4.25
2022-07-31T06:34:01.829Z,2.72
2022-07-31T06:36:39.809Z,5.28
2022-07-31T06:39:11.392Z,3.13
2022-07-31T06:42:00.837Z,3.47
2022-07-31T06:44:30.861Z,1.67
2022-07-31T06:47:19.333Z,3.50
2022-07-31T06:50:03.606Z,2.53
2022-07-31T06:52:38.551Z,3.88
2022-07-31T06:55:09.162Z,2.17
2022-07-31T06:57:40.465Z,3.40
2022-07-31T07:00:19.754Z,1.85
2022-07-31T07:02:51.869Z,1.15
2022-07-31T07:05:21.726Z,2.65
2022-07-31T07:07:54.175Z,0.82
2022-07-31T07:10:23.271Z,1.40
2022-07-31T07:13:02.500Z,2.55
2022-07-31T07:15:36.025Z,1.70
2022-07-31T07:18:05.668Z,1.15
2022-07-31T07:20:43.974Z,2.65
2022-07-31T07:23:14.157Z,2.63
2022-07-31T07:26:06.658Z,3.22
2022-07-31T07:28:37.546Z,2.20
2022-07-31T07:31:07.783Z,2.33
2022-07-31T07:33:40.537Z,1.38
2022-07-31T07:36:22.384Z,1.83
2022-07-31T07:38:55.777Z,1.40
2022-07-31T07:41:25.557Z,2.00
2022-07-31T07:43:56.063Z,2.35
2022-07-31T07:46:29.993Z,3.15
2022-07-31T07:49:02.568Z,4.65
2022-07-31T07:51:59.027Z,2.42
2022-07-31T07:54:43.263Z,1.77
2022-07-31T07:57:46.483Z,1.63
2022-07-31T08:00:36.091Z,1.58
2022-07-31T08:03:49.538Z,3.15
2022-07-31T08:05:56.078Z,1.77
2022-07-31T08:08:25.236Z,2.08
2022-07-31T08:11:17.951Z,3.75
2022-07-31T08:14:04.380Z,1.67
2022-07-31T08:16:53.373Z,2.97
2022-07-31T08:19:22.713Z,2.50
2022-07-31T08:21:51.760Z,3.85
2022-07-31T08:24:20.878Z,1.77
2022-07-31T08:27:10.606Z,2.38
2022-07-31T08:29:42.867Z,2.22
2022-07-31T08:32:20.446Z,5.32
2022-07-31T08:35:04.901Z,4.22
2022-07-31T08:37:50.935Z,2.80
2022-07-31T08:40:26.116Z,4.22
2022-07-31T08:42:56.637Z,2.92
2022-07-31T08:45:30.757Z,1.75
2022-07-31T08:48:29.099Z,1.75
2022-07-31T08:50:59.524Z,4.63
2022-07-31T08:53:58.759Z,2.65
2022-07-31T08:56:28.438Z,2.40
2022-07-31T08:58:58.159Z,1.63
2022-07-31T09:01:28.143Z,2.90
2022-07-31T09:04:00.164Z,1.90
2022-07-31T09:06:29.393Z,2.63
2022-07-31T09:08:58.495Z,2.72
2022-07-31T09:11:27.666Z,2.60
2022-07-31T09:14:28.565Z,1.63
2022-07-31T09:16:58.208Z,3.40
2022-07-31T09:19:51.761Z,2.08
2022-07-31T09:22:27.065Z,2.22
2022-07-31T09:25:12.040Z,3.45
2022-07-31T09:27:42.064Z,2.17
2022-07-31T09:30:12.767Z,2.10
2022-07-31T09:33:14.984Z,2.53
2022-07-31T09:36:16.232Z,3.03
2022-07-31T09:38:50.731Z,3.55
2022-07-31T09:41:57.973Z,3.50
2022-07-31T09:44:45.234Z,4.13
2022-07-31T09:47:23.113Z,6.80
2022-07-31T09:49:58.384Z,3.50
2022-07-31T09:52:31.250Z,3.72
2022-07-31T09:55:16.249Z,2.75
2022-07-31T09:57:54.428Z,2.75
2022-07-31T10:00:24.339Z,3.05
2022-07-31T10:02:56.029Z,3.00
2022-07-31T10:05:28.124Z,3.55
2022-07-31T10:08:03.147Z,3.70
2022-07-31T10:10:49.859Z,5.00
2022-07-31T10:13:28.739Z,4.07
2022-07-31T10:16:01.966Z,4.13
2022-07-31T10:19:11.544Z,3.17
2022-07-31T10:22:04.828Z,3.13
2022-07-31T10:24:45.476Z,2.80
2022-07-31T10:27:17.416Z,4.47
2022-07-31T10:29:48.468Z,3.22
2022-07-31T10:32:18.186Z,3.17
2022-07-31T10:35:07.613Z,2.97
2022-07-31T10:38:20.160Z,4.20
2022-07-31T10:41:39.060Z,3.67
2022-07-31T10:44:14.506Z,4.00
2022-07-31T10:46:59.574Z,3.67
2022-07-31T10:49:43.624Z,3.33
2022-07-31T10:52:33.126Z,8.88
2022-07-31T10:55:32.507Z,6.32
2022-07-31T10:58:20.783Z,6.28
2022-07-31T11:00:53.879Z,4.80
2022-07-31T11:03:55.650Z,5.65
2022-07-31T11:06:41.132Z,10.43
2022-07-31T11:09:30.506Z,5.95
2022-07-31T11:12:19.112Z,5.40
2022-07-31T11:15:20.133Z,7.78
2022-07-31T11:18:31.219Z,5.53
2022-07-31T11:21:38.227Z,4.55
2022-07-31T11:24:03.285Z,6.03
2022-07-31T11:26:41.452Z,8.25
2022-07-31T11:29:58.578Z,6.43
2022-07-31T11:32:14.025Z,5.95
2022-07-31T11:34:48.485Z,5.18
2022-07-31T11:37:20.603Z,4.30
2022-07-31T11:39:52.482Z,4.90
2022-07-31T11:42:26.449Z,9.23
2022-07-31T11:45:11.004Z,6.80
2022-07-31T11:48:10.211Z,3.00
2022-07-31T11:50:41.225Z,3.85
2022-07-31T11:53:10.901Z,4.07
2022-07-31T11:55:48.636Z,4.07
2022-07-31T11:58:20.180Z,5.10
2022-07-31T12:00:50.973Z,3.00
2022-07-31T12:03:24.239Z,3.85
2022-07-31T12:05:54.737Z,3.58
2022-07-31T12:08:25.382Z,4.10
2022-07-31T12:10:55.593Z,4.05
2022-07-31T12:13:26.457Z,5.32
2022-07-31T12:15:57.306Z,4.43
2022-07-31T12:18:29.417Z,5.30
2022-07-31T12:21:00.380Z,3.00
2022-07-31T12:23:41.834Z,3.63
2022-07-31T12:26:14.279Z,3.40
2022-07-31T12:28:44.065Z,5.22
2022-07-31T12:31:13.761Z,2.95
2022-07-31T12:33:45.789Z,3.47
2022-07-31T12:36:16.379Z,3.50
2022-07-31T12:38:48.420Z,1.67
2022-07-31T12:41:18.253Z,1.98
2022-07-31T12:43:51.927Z,4.32
2022-07-31T12:46:23.505Z,2.63
2022-07-31T12:48:54.099Z,2.83
2022-07-31T12:51:45.493Z,2.03
2022-07-31T12:54:12.265Z,4.03
2022-07-31T12:56:42.456Z,3.90
2022-07-31T12:59:11.821Z,4.43
2022-07-31T13:01:41.057Z,4.45
2022-07-31T13:04:19.064Z,2.88
2022-07-31T13:06:52.480Z,3.05
2022-07-31T13:09:21.734Z,2.53
2022-07-31T13:11:55.867Z,4.40
2022-07-31T13:14:26.741Z,3.08
2022-07-31T13:16:57.443Z,3.90
2022-07-31T13:19:28.553Z,2.88
2022-07-31T13:21:57.586Z,5.32
2022-07-31T13:24:26.766Z,4.97
2022-07-31T13:26:58.855Z,3.05
2022-07-31T13:29:27.963Z,4.63
2022-07-31T13:31:57.118Z,4.95
2022-07-31T13:34:27.540Z,3.35
2022-07-31T13:36:58.105Z,4.90
2022-07-31T13:39:27.164Z,4.75
2022-07-31T13:41:56.212Z,4.72
2022-07-31T13:44:25.299Z,3.67
2022-07-31T13:46:54.357Z,4.47
2022-07-31T13:49:23.874Z,3.22
2022-07-31T13:51:54.372Z,2.53
2022-07-31T13:54:23.497Z,3.07
2022-07-31T13:56:52.546Z,3.75
2022-07-31T13:59:21.702Z,4.22
2022-07-31T14:02:03.551Z,3.28
2022-07-31T14:04:38.814Z,4.85
2022-07-31T14:07:10.041Z,3.80
2022-07-31T14:09:47.106Z,3.92
2022-07-31T14:12:25.678Z,2.08
2022-07-31T14:14:54.784Z,5.00
2022-07-31T14:17:23.946Z,4.13
2022-07-31T14:19:53.096Z,3.20
2022-07-31T14:22:23.694Z,5.32
2022-07-31T14:24:53.231Z,3.30
2022-07-31T14:27:22.344Z,3.97
2022-07-31T14:29:51.451Z,5.47
2022-07-31T14:32:22.250Z,3.33
2022-07-31T14:34:51.661Z,2.97
2022-07-31T14:37:21.265Z,5.35
2022-07-31T14:39:51.728Z,4.75
2022-07-31T14:42:22.220Z,3.38
2022-07-31T14:44:54.595Z,3.08
2022-07-31T14:47:23.780Z,3.72
2022-07-31T14:50:06.691Z,4.60
2022-07-31T14:52:37.257Z,3.88
2022-07-31T14:55:08.857Z,3.38
2022-07-31T14:57:37.985Z,2.30
2022-07-31T15:00:12.902Z,3.35
2022-07-31T15:02:43.078Z,3.33
2022-07-31T15:06:49.262Z,2.95
2022-07-31T15:08:03.809Z,4.07
2022-07-31T15:10:34.868Z,3.42
2022-07-31T15:13:04.484Z,3.53
2022-07-31T15:15:33.903Z,4.38
2022-07-31T15:18:03.126Z,3.53
2022-07-31T15:20:33.103Z,3.45
2022-07-31T15:23:02.735Z,3.50
2022-07-31T15:25:33.420Z,2.90
2022-07-31T15:28:02.521Z,1.63
2022-07-31T15:30:31.584Z,2.30
2022-07-31T15:33:00.759Z,1.90
2022-07-31T15:35:30.341Z,2.88
2022-07-31T15:37:59.715Z,1.90
2022-07-31T15:40:28.862Z,3.10
2022-07-31T15:43:00.225Z,2.20
2022-07-31T15:45:29.545Z,3.38
2022-07-31T15:47:58.631Z,3.58
2022-07-31T15:50:27.858Z,2.75
2022-07-31T15:52:56.903Z,2.38
2022-07-31T15:55:26.464Z,2.92
2022-07-31T15:57:55.875Z,2.05
2022-07-31T16:00:26.848Z,2.50
2022-07-31T16:02:56.026Z,1.75
2022-07-31T16:05:37.044Z,3.63
2022-07-31T16:08:28.940Z,3.47
2022-07-31T16:10:58.625Z,3.92
2022-07-31T16:13:27.755Z,2.40
2022-07-31T16:15:58.176Z,2.63
2022-07-31T16:18:27.404Z,3.80
2022-07-31T16:20:56.494Z,2.90
2022-07-31T16:23:25.837Z,2.85
2022-07-31T16:25:55.341Z,2.38
2022-07-31T16:28:24.390Z,2.75
2022-07-31T16:30:53.533Z,2.03
2022-07-31T16:33:24.036Z,1.80
2022-07-31T16:35:53.177Z,2.17
2022-07-31T16:38:22.214Z,2.47
2022-07-31T16:40:53.559Z,2.42
2022-07-31T16:43:50.319Z,4.13
2022-07-31T16:46:12.109Z,2.97
2022-07-31T16:48:42.737Z,4.75
2022-07-31T16:51:11.781Z,2.60
2022-07-31T16:54:14.710Z,2.78
2022-07-31T16:56:32.928Z,3.28
2022-07-31T16:59:04.848Z,2.55
2022-07-31T17:01:58.849Z,4.22
2022-07-31T17:04:24.698Z,1.60
2022-07-31T17:06:53.731Z,1.73
2022-07-31T17:09:23.053Z,2.58
2022-07-31T17:11:53.847Z,3.38
2022-07-31T17:14:25.325Z,1.75
2022-07-31T17:16:55.737Z,1.23
2022-07-31T17:19:41.912Z,1.53
2022-07-31T17:22:18.102Z,1.17
2022-07-31T17:24:51.019Z,2.72
2022-07-31T17:27:21.879Z,2.15
2022-07-31T17:29:50.971Z,2.55
2022-07-31T17:32:20.137Z,4.15
2022-07-31T17:34:50.604Z,1.88
2022-07-31T17:37:19.854Z,3.20
2022-07-31T17:39:49.353Z,1.77
2022-07-31T17:42:21.673Z,1.85
2022-07-31T17:44:55.270Z,2.63
2022-07-31T17:47:26.042Z,3.28
2022-07-31T17:49:57.094Z,1.60
2022-07-31T17:52:26.181Z,1.58
2022-07-31T17:54:56.242Z,3.00
2022-07-31T17:57:29.416Z,3.05
2022-07-31T17:59:59.261Z,3.92
2022-07-31T18:02:28.459Z,3.60
2022-07-31T18:04:58.997Z,2.72
2022-07-31T18:07:28.380Z,2.17
2022-07-31T18:09:57.469Z,4.35
2022-07-31T18:12:26.700Z,3.50
2022-07-31T18:14:55.740Z,5.25
2022-07-31T18:17:25.713Z,4.25
2022-07-31T18:19:54.717Z,1.98
2022-07-31T18:22:25.268Z,4.30
2022-07-31T18:24:54.454Z,3.65
2022-07-31T18:27:23.592Z,3.17
2022-07-31T18:29:55.863Z,3.85
2022-07-31T18:32:25.977Z,5.07
2022-07-31T18:34:55.094Z,5.78
2022-07-31T18:37:25.753Z,4.18
2022-07-31T18:39:55.096Z,2.60
2022-07-31T18:42:27.606Z,5.57
2022-07-31T18:44:56.990Z,4.65
2022-07-31T18:47:26.729Z,3.35
2022-07-31T18:50:59.639Z,4.35
2022-07-31T18:52:46.433Z,3.60
2022-07-31T18:55:15.572Z,2.53
2022-07-31T18:57:44.720Z,5.65
2022-07-31T19:00:14.369Z,6.72
2022-07-31T19:02:43.465Z,3.80
2022-07-31T19:05:13.614Z,4.28
2022-07-31T19:07:45.463Z,4.13
2022-07-31T19:10:29.722Z,6.05
2022-07-31T19:13:00.940Z,5.57
2022-07-31T19:15:30.043Z,5.22
2022-07-31T19:18:02.022Z,5.07
2022-07-31T19:20:57.518Z,5.03
2022-07-31T19:23:23.315Z,3.40
2022-07-31T19:26:02.758Z,5.23
2022-07-31T19:28:32.771Z,5.20
2022-07-31T19:31:01.955Z,5.57
2022-07-31T19:33:31.056Z,6.97
2022-07-31T19:36:02.314Z,6.85
2022-07-31T19:38:35.862Z,5.57
2022-07-31T19:41:05.282Z,8.13
2022-07-31T19:43:34.654Z,5.85
2022-07-31T19:46:12.063Z,7.93
2022-07-31T19:48:43.798Z,6.70
2022-07-31T19:51:14.533Z,4.40
2022-07-31T19:53:45.457Z,5.55
2022-07-31T19:56:20.484Z,7.82
2022-07-31T19:58:51.260Z,6.13
2022-07-31T20:01:21.868Z,4.95
2022-07-31T20:03:53.325Z,9.55
2022-07-31T20:06:22.520Z,6.90
2022-07-31T20:08:56.711Z,4.82
2022-07-31T20:11:26.002Z,4.30
2022-07-31T20:13:55.007Z,5.90
2022-07-31T20:16:24.403Z,4.57
2022-07-31T20:18:53.774Z,7.57
2022-07-31T20:21:22.821Z,3.60
2022-07-31T20:23:57.785Z,5.00
2022-07-31T20:26:29.341Z,11.00
2022-07-31T20:28:58.596Z,7.40
2022-07-31T20:31:27.611Z,7.78
2022-07-31T20:33:58.198Z,12.90
2022-07-31T20:36:28.003Z,9.25
2022-07-31T20:38:59.199Z,5.72
2022-07-31T20:41:28.472Z,9.77
2022-07-31T20:43:57.512Z,8.82
2022-07-31T20:46:27.803Z,9.43
2022-07-31T20:48:57.407Z,8.18
2022-07-31T20:51:26.731Z,9.55
2022-07-31T20:53:57.467Z,9.75
2022-07-31T20:56:26.667Z,6.63
2022-07-31T20:58:56.295Z,9.10
2022-07-31T21:01:26.306Z,5.50
2022-07-31T21:03:56.149Z,6.88
2022-07-31T21:06:25.298Z,6.70
2022-07-31T21:08:54.482Z,7.07
2022-07-31T21:11:31.576Z,9.88
2022-07-31T21:14:02.909Z,9.27
2022-07-31T21:16:32.234Z,7.35
2022-07-31T21:19:01.302Z,7.18
2022-07-31T21:21:30.454Z,5.28
2022-07-31T21:24:00.928Z,7.43
2022-07-31T21:26:33.365Z,7.03
2022-07-31T21:29:03.040Z,11.10
2022-07-31T21:31:32.284Z,6.30
2022-07-31T21:34:01.700Z,9.15
2022-07-31T21:36:31.327Z,8.57
2022-07-31T21:39:00.905Z,7.80
2022-07-31T21:41:31.939Z,9.02
2022-07-31T21:44:01.498Z,9.75
2022-07-31T21:46:32.783Z,10.23
2022-07-31T21:49:02.203Z,7.70
2022-07-31T21:51:32.907Z,6.43
2022-07-31T21:54:01.947Z,7.38
2022-07-31T21:56:33.292Z,6.60
2022-07-31T22:01:31.213Z,7.35
2022-07-31T22:04:00.468Z,8.55
2022-07-31T22:06:46.761Z,7.63
2022-07-31T22:09:16.771Z,6.63
2022-07-31T22:12:01.407Z,6.65
2022-07-31T22:14:31.091Z,9.80
2022-07-31T22:17:00.334Z,6.32
2022-07-31T22:19:30.021Z,7.85
2022-07-31T22:21:59.518Z,7.22
2022-07-31T22:24:29.148Z,7.10
2022-07-31T22:27:18.228Z,8.68
2022-07-31T22:29:48.338Z,6.07
2022-07-31T22:32:17.566Z,7.93
2022-07-31T22:34:46.830Z,5.63
2022-07-31T22:37:16.882Z,7.65
2022-07-31T22:39:46.672Z,5.32
2022-07-31T22:42:17.240Z,7.03
2022-07-31T22:44:46.480Z,4.57
2022-07-31T22:47:17.141Z,6.10
2022-07-31T22:49:46.947Z,6.70
2022-07-31T22:52:16.071Z,6.20
2022-07-31T22:54:46.466Z,5.13
2022-07-31T22:57:17.970Z,3.72
2022-07-31T22:59:48.883Z,4.82
2022-07-31T23:02:18.821Z,4.03
2022-07-31T23:04:47.963Z,4.15
2022-07-31T23:07:17.013Z,4.63
2022-07-31T23:09:46.082Z,4.55
2022-07-31T23:12:16.568Z,6.28
2022-07-31T23:14:45.676Z,6.40
2022-07-31T23:17:22.369Z,4.25
2022-07-31T23:19:53.692Z,4.90
2022-07-31T23:22:33.565Z,3.05
2022-07-31T23:25:03.597Z,2.22
2022-07-31T23:27:34.328Z,5.50
2022-07-31T23:30:03.423Z,4.70
2022-07-31T23:32:32.489Z,4.15
2022-07-31T23:35:01.543Z,3.00
2022-07-31T23:37:30.693Z,3.03
2022-07-31T23:39:59.803Z,2.38
2022-07-31T23:42:39.927Z,2.08
2022-07-31T23:45:13.302Z,2.33
2022-07-31T23:47:45.399Z,3.00
2022-07-31T23:50:16.081Z,2.20
2022-07-31T23:52:46.071Z,4.15
2022-07-31T23:55:15.210Z,2.85
2022-07-31T23:57:44.242Z,3.80
